Skagway, AK

7:37 AM AKDT on September 23, 2014 (GMT -0800)
MesoWest Moore Creek Bridge AK US SNOTEL | Change Station
CLOSE
Current Station
Personal Weather Station
Location: Skagway, AK
Elevation: 2250 ft
Nearby Weather Stations

Elev 2250 ft 59.58 °N, 135.22 °W | Updated 69 days ago

Clear
Clear
50 °F
Feels Like 50 °F
N
2
Wind Variable Wind from West
Gusts 7 mph

Today
High -- | Low -- °F
--% Chance of Precip.
Yesterday
High -- | Low -- °F
Precip. -- in
6:48 AM 6:57 PM
Waning Crescent, 0% visible
Pressure 29.91 in
Visibility 10.0 miles
Clouds Few 1200 ft
Mostly Cloudy 1800 ft
Overcast 6000 ft
Dew Point 39 °F
Humidity 67%
Rainfall 0.00 in
Snow Depth 0 in , 3 in , 0 in
UV 0 out of 12
Pollen Not available.
Air Quality Not available.
Flu Activity Not available.
METAR PAGY 231453Z AUTO 00000KT 10SM -RA FEW012 BKN018 OVC060 09/08 A2991 RMK AO2 RAB21 SLP127 P0000 60001 T00890078 50001 TSNO

More Conditions Fewer Conditions

Pressure 29.91 in
Visibility 10.0 miles
Clouds Few 1200 ft
Mostly Cloudy 1800 ft
Overcast 6000 ft
Dew Point 39 °F
Humidity 67%
Rainfall 0.00 in
Snow Depth 0 in , 3 in , 0 in
UV 0 out of 12
Pollen Not available.
Air Quality Not available.
Flu Activity Not available.
METAR PAGY 231453Z AUTO 00000KT 10SM -RA FEW012 BKN018 OVC060 09/08 A2991 RMK AO2 RAB21 SLP127 P0000 60001 T00890078 50001 TSNO

More Conditions Fewer Conditions

10-Day Weather Forecast

Almanac

Astronomy

Sep. 23, 2014 Rise Set
Actual Time 6:48 AM AKDT 6:57 PM AKDT
Civil Twilight 6:07 AM AKDT 7:38 PM AKDT
Nautical Twilight 5:18 AM AKDT 8:26 PM AKDT
Astronomical Twilight 4:25 AM AKDT 9:19 PM AKDT
Moon 6:19 AM AKDT 6:34 PM AKDT
Length of Visible Light 13h 30m
Length of Day
12h 08m
Tomorrow will be 5m 16s shorter.
Waning Crescent, 0% of the Moon is Illuminated
Today
Waning Crescent
Sep 24
New
Oct 1
First Quarter
Oct 8
Full
Oct 15
Last Quarter

Today's Extremes

State Highs State Lows

Community

WunderPhotos

Upload Photos

1,755,725 photos uploaded!

WunderBlogs® & News

Nearby

Snow Depth

Station Depth Elevation
Grandview 0 in 1100 ft
Cooper Lake 3 in 1200 ft
Little Chena Ridge 0 in 2000 ft
Long Lake 0 in 820 ft
Grouse Creek Divide 0 in 700 ft

Earthquake Activity

City Distance Mag. Time & Date
No recent earthquake activity has been reported nearby.
Minimum magnitude displayed is 2.5.

Coastal Water Temperatures

Place Temperature
No Stations Reporting

Nearby Weather Stations